Flight Number: EUR1568 Duration: 2:45
Departure: Heraklion (Crete) (LGIR) at 08:00 Distance: 1393 Nm
Arrival: Basel-Mulhouse (LFSB) at 10:45 Equipment: A321

Weather Information
Heraklion Airport , Greece (LGIR) 35-20N 025-11E 39M Jan 23, 2018 - 04:20 AM EST / 2018.01.23 0920 UTC
Wind: from the N (350 degrees) at 16 MPH (14 KT):0
Visibility: greater than 7 mile(s):0
Sky conditions: partly cloudy Temperature: 57 F (14 C) Dew Point: 50 F (10 C) Relative Humidity: 76% Pressure (altimeter): 29.94 in. Hg (1014 hPa)
ob: LGIR 230920Z 35014KT 9999 SCT020 14/10 Q1014 NOSIG cycle: 9
Sunrise: 05:27 Sunset: 15:35 (UTC)

Bale-Mulhouse, France (LFSB) 47-36N 007-31E 271M Jan 23, 2018 - 04:30 AM EST / 2018.01.23 0930 UTC
Wind: from the W (270 degrees) at 5 MPH (4 KT) (direction variable):0
Visibility: greater than 7 mile(s):0
Sky conditions: mostly cloudy Temperature: 46 F (8 C) Dew Point: 39 F (4 C) Relative Humidity: 75% Pressure (altimeter): 30.36 in. Hg (1028 hPa)
ob: LFSB 230930Z 27004KT 230V300 9999 FEW016 BKN043 08/04 Q1028 NOSIG cycle: 9
Sunrise: 07:10 Sunset: 16:13 (UTC)

TAF:2018/01/23 06:21 TAF AMD LFSB 230513Z 2306/2406 20005KT 9999 FEW016 BKN035 BECMG 2309/2312 26010KT BECMG 2315/2318 15005KT TEMPO 2318/2402 CAVOK

Previous Pireps for this route
Date Aircraft Flight time Fuel used Landing rate On time
2013-03-23A32103.1327288-278Charter
2016-05-15A32102.4716007-129Yes
(pireps marked green are flown by you)

Route map